createdAt,value
2019-01-28T00:00:34.410Z,97621.14
2019-01-28T00:03:45.593Z,97616.58
2019-01-28T00:06:43.263Z,97618.60
2019-01-28T00:09:13.601Z,97623.05
2019-01-28T00:11:57.342Z,97620.19
2019-01-28T00:15:37.613Z,97627.09
2019-01-28T00:21:56.209Z,97637.66
2019-01-28T00:25:35.582Z,97649.17
2019-01-28T00:28:37.763Z,97657.42
2019-01-28T00:35:05.888Z,97668.19
2019-01-28T00:38:21.348Z,97678.27
2019-01-28T00:41:52.725Z,97679.78
2019-01-28T00:48:11.155Z,97685.81
2019-01-28T00:50:38.840Z,97705.28
2019-01-28T00:53:09.174Z,97705.59
2019-01-28T00:55:39.578Z,97710.66
2019-01-28T00:58:09.871Z,97720.25
2019-01-28T01:00:40.194Z,97724.41
2019-01-28T01:03:10.424Z,97726.58
2019-01-28T01:05:40.810Z,97735.68
2019-01-28T01:08:11.129Z,97745.37
2019-01-28T01:11:21.719Z,97748.53
2019-01-28T01:14:36.304Z,97761.05
2019-01-28T01:20:27.224Z,97780.78
2019-01-28T01:22:57.528Z,97791.48
2019-01-28T01:28:42.368Z,97805.70
2019-01-28T01:28:48.672Z,97807.80
2019-01-28T01:32:12.797Z,97819.27
2019-01-28T01:35:18.715Z,97826.61
2019-01-28T01:48:58.258Z,97837.22
2019-01-28T01:59:27.796Z,97852.72
2019-01-28T02:02:37.050Z,97852.23
2019-01-28T02:10:09.139Z,97865.52
2019-01-28T02:13:31.258Z,97865.78
2019-01-28T02:19:30.309Z,97865.99
2019-01-28T02:22:00.591Z,97861.52
2019-01-28T02:24:30.923Z,97852.78
2019-01-28T02:27:01.180Z,97862.84
2019-01-28T02:34:16.728Z,97868.61
2019-01-28T02:45:33.020Z,97879.97
2019-01-28T02:52:07.230Z,97887.03
2019-01-28T02:55:45.281Z,97886.42
2019-01-28T02:58:15.108Z,97882.62
2019-01-28T03:00:45.419Z,97890.64
2019-01-28T03:03:15.804Z,97896.98
2019-01-28T03:05:46.182Z,97894.98
2019-01-28T03:08:16.579Z,97891.09
2019-01-28T03:10:47.534Z,97893.42
2019-01-28T03:13:17.913Z,97893.98
2019-01-28T03:15:48.301Z,97895.28
2019-01-28T03:18:18.711Z,97906.23
2019-01-28T03:20:49.069Z,97913.28
2019-01-28T03:27:08.454Z,97908.67
2019-01-28T03:30:17.213Z,97918.01
2019-01-28T03:33:21.721Z,97924.17
2019-01-28T03:36:41.105Z,97924.58
2019-01-28T03:42:25.715Z,97944.81
2019-01-28T03:49:55.926Z,97951.81
2019-01-28T03:52:57.583Z,97956.19
2019-01-28T03:55:58.914Z,97949.84
2019-01-28T03:59:03.854Z,97945.74
2019-01-28T04:06:07.372Z,97947.16
2019-01-28T04:31:18.635Z,97967.14
2019-01-28T04:37:36.790Z,97963.97
2019-01-28T04:40:07.404Z,97970.95
2019-01-28T04:42:37.890Z,97962.95
2019-01-28T04:45:10.812Z,97964.95
2019-01-28T04:47:41.202Z,97965.13
2019-01-28T04:50:13.884Z,97958.16
2019-01-28T04:52:44.341Z,97961.38
2019-01-28T04:55:15.005Z,97960.04
2019-01-28T04:57:45.441Z,97958.58
2019-01-28T05:00:18.267Z,97955.06
2019-01-28T05:02:48.673Z,97957.56
2019-01-28T05:05:19.754Z,97958.28
2019-01-28T05:07:50.265Z,97950.47
2019-01-28T05:10:20.809Z,97955.67
2019-01-28T05:12:51.238Z,97966.91
2019-01-28T05:15:21.872Z,97958.14
2019-01-28T05:29:37.178Z,97953.58
2019-01-28T05:32:07.625Z,97950.39
2019-01-28T05:34:38.041Z,97948.05
2019-01-28T05:37:08.462Z,97948.63
2019-01-28T05:39:40.628Z,97947.92
2019-01-28T05:42:19.938Z,97946.16
2019-01-28T05:44:50.302Z,97947.80
2019-01-28T05:47:23.240Z,97948.85
2019-01-28T05:49:53.451Z,97946.25
2019-01-28T05:52:23.759Z,97948.50
2019-01-28T05:54:54.141Z,97946.45
2019-01-28T05:57:24.541Z,97950.60
2019-01-28T05:59:54.825Z,97953.91
2019-01-28T06:02:25.495Z,97954.38
2019-01-28T06:04:55.828Z,97950.60
2019-01-28T06:07:26.176Z,97954.50
2019-01-28T06:09:56.474Z,97954.25
2019-01-28T06:13:12.498Z,97957.56
2019-01-28T06:15:42.761Z,97962.50
2019-01-28T06:22:05.874Z,97957.75
2019-01-28T06:24:36.427Z,97954.23
2019-01-28T06:27:06.745Z,97953.99
2019-01-28T06:29:37.004Z,97962.19
2019-01-28T06:32:07.963Z,97958.28
2019-01-28T06:34:38.257Z,97954.25
2019-01-28T06:41:04.012Z,97956.31
2019-01-28T06:47:54.511Z,97958.58
2019-01-28T06:54:14.445Z,97957.03
2019-01-28T06:56:44.782Z,97955.81
2019-01-28T06:59:15.077Z,97950.02
2019-01-28T07:01:45.376Z,97952.63
2019-01-28T07:04:15.630Z,97952.76
2019-01-28T07:06:46.448Z,97953.38
2019-01-28T07:09:16.761Z,97950.73
2019-01-28T07:11:47.036Z,97945.60
2019-01-28T07:14:17.518Z,97952.86
2019-01-28T07:16:48.022Z,97952.28
2019-01-28T07:19:18.805Z,97963.36
2019-01-28T07:21:49.233Z,97969.02
2019-01-28T07:24:19.699Z,97974.91
2019-01-28T07:26:50.129Z,97974.64
2019-01-28T07:29:20.625Z,97978.58
2019-01-28T07:31:51.114Z,97981.80
2019-01-28T07:34:21.627Z,97980.48
2019-01-28T07:36:52.143Z,97968.95
2019-01-28T07:39:22.520Z,97969.08
2019-01-28T07:41:53.434Z,97964.95
2019-01-28T07:44:23.968Z,97964.60
2019-01-28T07:46:54.485Z,97953.66
2019-01-28T07:49:24.928Z,97951.97
2019-01-28T07:51:55.383Z,97956.06
2019-01-28T07:54:25.803Z,97946.36
2019-01-28T07:56:56.223Z,97935.69
2019-01-28T07:59:26.667Z,97938.92
2019-01-28T08:01:57.125Z,97936.00
2019-01-28T08:04:27.617Z,97939.25
2019-01-28T08:06:59.556Z,97941.72
2019-01-28T08:10:55.305Z,97938.73
2019-01-28T08:16:44.543Z,97939.66
2019-01-28T08:19:14.994Z,97944.63
2019-01-28T08:22:18.782Z,97940.53
2019-01-28T08:29:35.425Z,97926.92
2019-01-28T08:35:46.291Z,97924.92
2019-01-28T08:38:16.725Z,97916.48
2019-01-28T08:40:47.043Z,97921.37
2019-01-28T08:43:17.342Z,97920.27
2019-01-28T08:45:47.847Z,97918.13
2019-01-28T08:48:18.749Z,97914.44
2019-01-28T08:50:49.231Z,97912.80
2019-01-28T08:53:19.950Z,97908.66
2019-01-28T08:55:50.571Z,97911.81
2019-01-28T08:58:21.606Z,97918.12
2019-01-28T09:00:52.294Z,97911.03
2019-01-28T09:03:22.924Z,97913.29
2019-01-28T09:05:53.418Z,97913.91
2019-01-28T09:08:23.878Z,97898.34
2019-01-28T09:10:54.349Z,97916.74
2019-01-28T09:13:24.850Z,97911.88
2019-01-28T09:15:55.354Z,97910.73
2019-01-28T09:18:26.408Z,97909.42
2019-01-28T09:20:57.025Z,97910.86
2019-01-28T09:23:27.368Z,97906.09
2019-01-28T09:25:57.630Z,97912.14
2019-01-28T09:28:27.953Z,97911.57
2019-01-28T09:30:58.207Z,97904.31
2019-01-28T09:33:28.575Z,97902.14
2019-01-28T09:35:59.171Z,97899.34
2019-01-28T09:38:29.595Z,97896.84
2019-01-28T09:41:00.101Z,97885.44
2019-01-28T09:43:30.337Z,97885.78
2019-01-28T09:46:00.574Z,97872.19
2019-01-28T09:48:34.421Z,97874.83
2019-01-28T09:54:45.980Z,97876.92
2019-01-28T10:09:28.272Z,97875.95
2019-01-28T10:11:13.144Z,97868.31
2019-01-28T10:13:43.475Z,97860.27
2019-01-28T10:16:14.502Z,97867.30
2019-01-28T10:18:44.815Z,97869.84
2019-01-28T10:21:15.133Z,97875.23
2019-01-28T10:23:45.538Z,97869.77
2019-01-28T10:26:15.823Z,97873.88
2019-01-28T10:28:46.219Z,97870.02
2019-01-28T10:31:16.616Z,97867.69
2019-01-28T10:33:47.009Z,97870.19
2019-01-28T10:36:17.625Z,97875.95
2019-01-28T10:38:47.973Z,97878.98
2019-01-28T10:41:18.476Z,97879.19
2019-01-28T10:43:48.874Z,97881.09
2019-01-28T10:46:19.331Z,97888.77
2019-01-28T10:48:49.966Z,97882.13
2019-01-28T10:51:20.284Z,97883.34
2019-01-28T10:53:50.873Z,97881.25
2019-01-28T10:56:21.364Z,97874.86
2019-01-28T10:58:51.850Z,97875.21
2019-01-28T11:01:22.316Z,97872.70
2019-01-28T11:03:52.675Z,97876.88
2019-01-28T11:06:23.144Z,97871.69
2019-01-28T11:08:53.511Z,97877.13
2019-01-28T11:11:24.444Z,97880.91
2019-01-28T11:13:55.028Z,97871.45
2019-01-28T11:16:25.472Z,97878.45
2019-01-28T11:18:57.757Z,97871.26
2019-01-28T11:22:11.892Z,97870.55
2019-01-28T11:33:57.428Z,97858.02
2019-01-28T11:36:28.091Z,97846.96
2019-01-28T11:38:59.730Z,97852.02
2019-01-28T11:41:30.823Z,97851.00
2019-01-28T11:44:01.254Z,97846.11
2019-01-28T11:49:05.997Z,97840.52
2019-01-28T11:49:11.943Z,97853.38
2019-01-28T11:51:36.031Z,97843.69
2019-01-28T11:54:06.678Z,97840.66
2019-01-28T11:56:37.106Z,97838.69
2019-01-28T11:59:07.541Z,97836.60
2019-01-28T12:01:37.894Z,97838.20
2019-01-28T12:06:48.547Z,97840.14
2019-01-28T12:09:18.946Z,97851.23
2019-01-28T12:11:49.270Z,97830.91
2019-01-28T12:14:22.823Z,97850.14
2019-01-28T12:24:24.081Z,97859.25
2019-01-28T12:26:54.385Z,97861.52
2019-01-28T12:29:24.889Z,97859.58
2019-01-28T12:31:55.412Z,97854.01
2019-01-28T12:34:25.734Z,97858.30
2019-01-28T12:36:56.466Z,97860.36
2019-01-28T12:40:22.126Z,97853.44
2019-01-28T12:43:14.679Z,97856.73
2019-01-28T12:46:32.079Z,97864.86
2019-01-28T12:52:22.763Z,97851.66
2019-01-28T12:55:57.321Z,97856.47
2019-01-28T12:59:09.135Z,97861.03
2019-01-28T13:01:52.241Z,97860.70
2019-01-28T13:05:00.940Z,97860.61
2019-01-28T13:07:35.170Z,97860.20
2019-01-28T13:10:28.312Z,97861.50
2019-01-28T13:13:31.488Z,97871.08
2019-01-28T13:16:37.552Z,97867.77
2019-01-28T13:19:07.918Z,97874.33
2019-01-28T13:21:38.415Z,97870.50
2019-01-28T13:24:08.961Z,97885.23
2019-01-28T13:26:39.960Z,97885.87
2019-01-28T13:29:10.302Z,97894.43
2019-01-28T13:31:41.114Z,97891.57
2019-01-28T13:34:11.472Z,97899.64
2019-01-28T13:36:41.762Z,97897.39
2019-01-28T13:39:12.169Z,97887.70
2019-01-28T13:41:42.546Z,97887.73
2019-01-28T13:44:12.882Z,97887.77
2019-01-28T13:47:07.700Z,97888.09
2019-01-28T13:49:39.862Z,97888.70
2019-01-28T13:52:15.761Z,97888.22
2019-01-28T13:54:57.876Z,97889.30
2019-01-28T13:57:30.062Z,97896.86
2019-01-28T14:00:01.724Z,97903.48
2019-01-28T14:02:36.842Z,97890.02
2019-01-28T14:05:09.467Z,97892.46
2019-01-28T14:07:59.975Z,97891.80
2019-01-28T14:10:36.285Z,97898.96
2019-01-28T14:13:43.714Z,97904.12
2019-01-28T14:16:15.695Z,97899.58
2019-01-28T14:18:52.085Z,97889.59
2019-01-28T14:21:23.803Z,97906.70
2019-01-28T14:24:01.165Z,97910.22
2019-01-28T14:26:45.928Z,97905.16
2019-01-28T14:31:44.379Z,97905.75
2019-01-28T14:34:14.701Z,97908.19
2019-01-28T14:36:45.131Z,97903.10
2019-01-28T14:39:15.466Z,97904.55
2019-01-28T14:42:16.842Z,97905.64
2019-01-28T14:44:55.953Z,97912.51
2019-01-28T14:47:31.895Z,97908.92
2019-01-28T14:50:11.605Z,97913.05
2019-01-28T14:52:57.084Z,97912.70
2019-01-28T14:55:34.836Z,97919.02
2019-01-28T14:58:06.237Z,97913.56
2019-01-28T15:00:48.797Z,97903.72
2019-01-28T15:03:22.825Z,97914.47
2019-01-28T15:06:06.786Z,97913.34
2019-01-28T15:08:39.706Z,97912.06
2019-01-28T15:11:16.186Z,97917.27
2019-01-28T15:13:49.920Z,97916.43
2019-01-28T15:16:21.118Z,97914.98
2019-01-28T15:18:55.207Z,97912.58
2019-01-28T15:21:37.960Z,97913.20
2019-01-28T15:24:20.240Z,97909.68
2019-01-28T15:26:56.236Z,97908.66
2019-01-28T15:29:28.837Z,97919.13
2019-01-28T15:32:01.649Z,97921.84
2019-01-28T15:35:22.220Z,97920.75
2019-01-28T15:37:22.387Z,97929.22
2019-01-28T15:39:56.893Z,97921.92
2019-01-28T15:42:47.309Z,97929.08
2019-01-28T15:45:14.411Z,97930.45
2019-01-28T15:47:49.548Z,97932.05
2019-01-28T15:50:23.154Z,97933.69
2019-01-28T15:52:58.584Z,97934.81
2019-01-28T15:55:32.770Z,97941.97
2019-01-28T15:58:06.715Z,97941.34
2019-01-28T16:01:05.147Z,97948.29
2019-01-28T16:03:39.990Z,97946.98
2019-01-28T16:06:23.000Z,97958.55
2019-01-28T16:09:19.378Z,97960.69
2019-01-28T16:11:54.219Z,97962.56
2019-01-28T16:14:37.989Z,97970.81
2019-01-28T16:17:17.248Z,97973.08
2019-01-28T16:19:52.365Z,97966.55
2019-01-28T16:22:58.996Z,97967.86
2019-01-28T16:25:11.733Z,97972.03
2019-01-28T16:27:52.462Z,97975.48
2019-01-28T16:30:29.585Z,97982.01
2019-01-28T16:33:01.312Z,97991.58
2019-01-28T16:35:42.242Z,97984.04
2019-01-28T16:38:27.674Z,97986.23
2019-01-28T16:40:58.237Z,97986.14
2019-01-28T16:43:29.024Z,97981.93
2019-01-28T16:45:59.447Z,97987.72
2019-01-28T16:48:30.394Z,97985.95
2019-01-28T16:51:00.799Z,97991.36
2019-01-28T16:53:31.318Z,97989.92
2019-01-28T16:56:01.822Z,97997.41
2019-01-28T16:58:36.152Z,97996.05
2019-01-28T17:01:12.207Z,97991.55
2019-01-28T17:03:45.673Z,98004.47
2019-01-28T17:06:23.023Z,98010.33
2019-01-28T17:08:54.483Z,98016.65
2019-01-28T17:11:29.837Z,98009.96
2019-01-28T17:14:08.972Z,98013.91
2019-01-28T17:16:41.775Z,98019.49
2019-01-28T17:19:14.124Z,98019.52
2019-01-28T17:21:47.365Z,98030.13
2019-01-28T17:24:53.753Z,98024.01
2019-01-28T17:27:41.427Z,98036.66
2019-01-28T17:31:05.871Z,98038.40
2019-01-28T17:33:51.416Z,98039.37
2019-01-28T17:36:36.847Z,98041.71
2019-01-28T17:42:23.397Z,98048.70
2019-01-28T17:45:39.127Z,98047.97
2019-01-28T17:48:34.139Z,98053.89
2019-01-28T17:51:43.825Z,98056.83
2019-01-28T17:54:42.585Z,98052.69
2019-01-28T17:57:38.780Z,98060.02
2019-01-28T18:00:29.819Z,98063.78
2019-01-28T18:06:41.359Z,98064.06
2019-01-28T18:09:24.460Z,98070.25
2019-01-28T18:15:39.317Z,98082.44
2019-01-28T18:18:36.849Z,98087.92
2019-01-28T18:21:37.257Z,98086.58
2019-01-28T18:24:21.306Z,98089.92
2019-01-28T18:27:26.527Z,98097.49
2019-01-28T18:31:51.036Z,98094.65
2019-01-28T18:33:28.159Z,98106.91
2019-01-28T18:36:26.967Z,98103.62
2019-01-28T18:41:21.142Z,98107.49
2019-01-28T18:53:43.501Z,98135.45
2019-01-28T18:56:45.431Z,98137.77
2019-01-28T18:59:37.899Z,98136.45
2019-01-28T19:02:29.796Z,98147.87
2019-01-28T19:05:25.202Z,98156.06
2019-01-28T19:08:14.591Z,98160.05
2019-01-28T19:10:47.060Z,98166.11
2019-01-28T19:13:56.546Z,98170.05
2019-01-28T19:17:20.119Z,98178.41
2019-01-28T19:20:15.949Z,98182.92
2019-01-28T19:23:07.450Z,98192.77
2019-01-28T19:25:50.888Z,98192.45
2019-01-28T19:28:29.976Z,98197.54
2019-01-28T19:31:06.941Z,98208.58
2019-01-28T19:33:40.330Z,98211.59
2019-01-28T19:36:29.435Z,98210.27
2019-01-28T19:39:04.087Z,98219.42
2019-01-28T19:41:37.561Z,98215.98
2019-01-28T19:44:11.388Z,98223.55
2019-01-28T19:46:42.726Z,98219.30
2019-01-28T19:49:52.637Z,98234.13
2019-01-28T19:52:25.373Z,98234.25
2019-01-28T19:54:57.661Z,98238.73
2019-01-28T19:57:49.972Z,98240.01
2019-01-28T20:00:44.283Z,98248.73
2019-01-28T20:03:35.976Z,98247.69
2019-01-28T20:06:26.485Z,98257.38
2019-01-28T20:08:57.442Z,98258.16
2019-01-28T20:11:29.058Z,98264.80
2019-01-28T20:14:14.044Z,98273.70
2019-01-28T20:16:46.204Z,98271.48
2019-01-28T20:19:17.172Z,98277.17
2019-01-28T20:21:49.042Z,98292.09
2019-01-28T20:24:20.331Z,98296.27
2019-01-28T20:26:51.726Z,98299.80
2019-01-28T20:29:25.579Z,98305.01
2019-01-28T20:31:58.053Z,98311.65
2019-01-28T20:34:29.525Z,98315.33
2019-01-28T20:37:08.434Z,98317.92
2019-01-28T20:39:39.546Z,98315.56
2019-01-28T20:42:11.856Z,98320.30
2019-01-28T20:44:43.075Z,98317.83
2019-01-28T20:47:14.667Z,98321.60
2019-01-28T20:49:45.716Z,98323.87
2019-01-28T20:52:17.401Z,98337.38
2019-01-28T20:54:48.492Z,98330.19
2019-01-28T20:57:23.224Z,98342.39
2019-01-28T21:00:04.604Z,98349.77
2019-01-28T21:02:36.610Z,98351.41
2019-01-28T21:05:10.702Z,98361.39
2019-01-28T21:07:45.191Z,98363.50
2019-01-28T21:10:28.550Z,98360.67
2019-01-28T21:13:00.344Z,98364.47
2019-01-28T21:15:46.637Z,98374.91
2019-01-28T21:18:20.940Z,98387.02
2019-01-28T21:21:03.895Z,98390.12
2019-01-28T21:23:37.687Z,98397.10
2019-01-28T21:26:11.639Z,98404.94
2019-01-28T21:28:41.957Z,98410.50
2019-01-28T21:31:13.240Z,98403.86
2019-01-28T21:33:43.607Z,98400.53
2019-01-28T21:36:48.039Z,98409.40
2019-01-28T21:39:38.378Z,98419.73
2019-01-28T21:42:10.821Z,98432.50
2019-01-28T21:45:01.120Z,98430.98
2019-01-28T21:47:35.231Z,98438.44
2019-01-28T21:50:35.138Z,98439.16
2019-01-28T21:53:06.379Z,98449.01
2019-01-28T21:55:39.630Z,98456.22
2019-01-28T21:58:25.598Z,98463.71
2019-01-28T22:00:59.388Z,98466.34
2019-01-28T22:03:33.379Z,98471.43
2019-01-28T22:06:21.603Z,98477.33
2019-01-28T22:09:14.653Z,98476.14
2019-01-28T22:11:45.720Z,98478.71
2019-01-28T22:14:18.750Z,98485.56
2019-01-28T22:17:09.488Z,98486.84
2019-01-28T22:19:39.971Z,98495.93
2019-01-28T22:22:10.212Z,98500.02
2019-01-28T22:24:50.321Z,98511.45
2019-01-28T22:27:32.156Z,98509.13
2019-01-28T22:30:19.347Z,98533.34
2019-01-28T22:33:00.875Z,98523.88
2019-01-28T22:35:38.035Z,98524.53
2019-01-28T22:38:08.818Z,98530.59
2019-01-28T22:40:39.310Z,98535.11
2019-01-28T22:43:09.698Z,98537.59
2019-01-28T22:45:39.929Z,98547.98
2019-01-28T22:48:22.215Z,98549.28
2019-01-28T22:50:52.531Z,98557.59
2019-01-28T22:53:22.847Z,98571.76
2019-01-28T22:55:53.113Z,98564.90
2019-01-28T22:58:23.354Z,98571.98
2019-01-28T23:01:07.681Z,98566.77
2019-01-28T23:03:39.103Z,98581.67
2019-01-28T23:06:20.854Z,98582.13
2019-01-28T23:08:54.897Z,98589.70
2019-01-28T23:11:28.800Z,98576.37
2019-01-28T23:14:00.992Z,98594.91
2019-01-28T23:16:36.944Z,98588.02
2019-01-28T23:19:14.853Z,98602.91
2019-01-28T23:21:46.614Z,98612.63
2019-01-28T23:24:19.327Z,98619.27
2019-01-28T23:26:50.654Z,98609.36
2019-01-28T23:29:21.053Z,98626.16
2019-01-28T23:31:51.623Z,98628.03
2019-01-28T23:34:22.027Z,98630.75
2019-01-28T23:36:52.328Z,98633.59
2019-01-28T23:39:23.235Z,98634.16
2019-01-28T23:41:53.603Z,98644.58
2019-01-28T23:44:23.903Z,98650.73
2019-01-28T23:46:54.234Z,98653.13
2019-01-28T23:49:24.733Z,98650.22
2019-01-28T23:51:54.966Z,98654.86
2019-01-28T23:54:25.288Z,98656.90
2019-01-28T23:56:55.540Z,98673.33
2019-01-28T23:59:33.895Z,98675.48
